Time;durP1;ratioP1;P1;durP2;ratioP2;P2;SDS_P1;SDS_P2;PMS_P1;PMS_P2;Temp;Humidity;BMP_temperature;BMP_pressure;BME280_temperature;BME280_humidity;BME280_pressure;Samples;Min_cycle;Max_cycle;Signal;HPM_P1;HPM_P2
2020/12/14 00:00:42;;;;;;;45.55;40.88;;;28.40;90.20;;;;;;5069423;28;20230;-53
2020/12/14 00:03:14;;;;;;;40.83;36.72;;;28.50;90.20;;;;;;5070720;28;20646;-51
2020/12/14 00:05:45;;;;;;;42.15;38.05;;;28.40;90.20;;;;;;5064436;28;20299;-53
2020/12/14 00:08:15;;;;;;;41.72;37.67;;;28.50;90.20;;;;;;5072926;28;20237;-54
2020/12/14 00:10:47;;;;;;;35.83;32.40;;;28.50;90.20;;;;;;5072336;28;20223;-51
2020/12/14 00:13:17;;;;;;;33.83;30.40;;;28.50;90.30;;;;;;5068638;28;20237;-54
2020/12/14 00:15:48;;;;;;;30.40;27.40;;;28.50;90.30;;;;;;5067924;28;20233;-55
2020/12/14 00:18:18;;;;;;;32.35;29.00;;;28.60;90.40;;;;;;5071121;28;20260;-51
2020/12/14 00:20:49;;;;;;;31.52;28.40;;;28.60;90.40;;;;;;5071971;28;20286;-54
2020/12/14 00:23:20;;;;;;;32.05;29.02;;;28.70;90.40;;;;;;5071884;28;20241;-55
2020/12/14 00:25:51;;;;;;;31.67;28.55;;;28.70;90.50;;;;;;5069752;28;20728;-55
2020/12/14 00:28:22;;;;;;;31.52;28.67;;;28.70;90.50;;;;;;5068536;28;20267;-52
2020/12/14 00:30:52;;;;;;;34.20;30.83;;;28.80;90.50;;;;;;5071914;28;20236;-52
2020/12/14 00:33:23;;;;;;;34.75;31.40;;;28.80;90.60;;;;;;5071018;28;20229;-52
2020/12/14 00:35:54;;;;;;;34.53;31.27;;;28.90;90.60;;;;;;5067945;28;20658;-52
2020/12/14 00:38:25;;;;;;;33.67;30.40;;;28.90;90.60;;;;;;5066819;28;20245;-56
2020/12/14 00:40:56;;;;;;;33.20;30.08;;;28.90;90.70;;;;;;5069244;28;20321;-58
2020/12/14 00:43:27;;;;;;;35.08;31.67;;;29.00;90.80;;;;;;5069653;28;20621;-53
2020/12/14 00:45:58;;;;;;;33.28;30.15;;;29.00;90.80;;;;;;5069684;28;20291;-56
2020/12/14 00:48:28;;;;;;;33.63;30.58;;;29.10;90.90;;;;;;5069949;28;20307;-54
2020/12/14 00:50:59;;;;;;;31.67;28.48;;;29.10;90.90;;;;;;5069820;28;20237;-51
2020/12/14 00:53:29;;;;;;;36.22;32.65;;;29.20;91.00;;;;;;5068699;28;20238;-54
2020/12/14 00:56:02;;;;;;;38.08;34.38;;;29.20;91.10;;;;;;5068758;28;20665;-53
2020/12/14 00:58:33;;;;;;;37.78;34.10;;;29.30;91.30;;;;;;5071859;28;20247;-52
2020/12/14 01:01:03;;;;;;;39.85;36.05;;;29.30;91.30;;;;;;5068214;28;20697;-54
2020/12/14 01:03:34;;;;;;;38.10;34.65;;;29.40;91.40;;;;;;5068658;28;20316;-55
2020/12/14 01:06:06;;;;;;;37.35;33.80;;;29.40;91.40;;;;;;5065806;28;20711;-56
2020/12/14 01:08:36;;;;;;;31.25;28.35;;;29.50;91.50;;;;;;5069166;28;20221;-55
2020/12/14 01:11:09;;;;;;;32.75;29.73;;;29.60;91.50;;;;;;5069443;28;20240;-57
2020/12/14 01:13:39;;;;;;;33.63;30.52;;;29.60;91.50;;;;;;5062348;28;20573;-53
2020/12/14 01:16:10;;;;;;;32.15;29.20;;;29.70;91.40;;;;;;5066787;28;20234;-55
2020/12/14 01:18:41;;;;;;;32.78;29.70;;;29.70;91.40;;;;;;5067382;28;20680;-53
2020/12/14 01:21:11;;;;;;;34.53;31.45;;;29.80;91.40;;;;;;5069386;28;20233;-56
2020/12/14 01:23:42;;;;;;;37.15;33.85;;;29.80;91.40;;;;;;5067929;28;20685;-55
2020/12/14 01:26:13;;;;;;;36.70;33.38;;;29.90;91.30;;;;;;5068639;28;20244;-53
2020/12/14 01:28:44;;;;;;;37.40;33.83;;;30.00;91.40;;;;;;5068303;28;20233;-55
2020/12/14 01:31:15;;;;;;;37.30;33.88;;;30.00;91.30;;;;;;5069236;28;20291;-56
2020/12/14 01:33:45;;;;;;;40.20;36.42;;;30.10;91.30;;;;;;5062461;28;20304;-56
2020/12/14 01:36:16;;;;;;;62.70;56.83;;;30.10;91.10;;;;;;5066080;28;20297;-53
2020/12/14 01:38:46;;;;;;;65.28;58.80;;;30.20;91.10;;;;;;5067332;28;20241;-55
2020/12/14 01:41:18;;;;;;;63.28;56.70;;;30.30;91.00;;;;;;5066880;28;20226;-53
2020/12/14 01:43:49;;;;;;;61.72;55.60;;;30.30;90.90;;;;;;5064620;28;20264;-55
2020/12/14 01:46:28;;;;;;;56.97;51.42;;;30.40;91.00;;;;;;5066893;28;20236;-53
2020/12/14 01:49:01;;;;;;;54.25;49.03;;;30.40;91.00;;;;;;5062629;28;20692;-54
2020/12/14 01:51:31;;;;;;;51.78;46.78;;;30.50;91.00;;;;;;5066680;28;20233;-53
2020/12/14 01:54:09;;;;;;;57.67;51.78;;;30.50;91.00;;;;;;5065321;28;20225;-55
2020/12/14 01:56:41;;;;;;;57.42;51.67;;;30.50;90.80;;;;;;5065790;28;20259;-53
2020/12/14 01:59:11;;;;;;;53.75;48.63;;;30.60;90.60;;;;;;5051715;28;20247;-52
2020/12/14 02:01:42;;;;;;;61.88;55.70;;;30.60;90.50;;;;;;5066496;28;20229;-52
2020/12/14 02:04:13;;;;;;;59.85;54.05;;;30.80;90.50;;;;;;5069670;28;20241;-53
2020/12/14 02:06:45;;;;;;;56.38;50.83;;;30.80;90.60;;;;;;5067739;28;20761;-56
2020/12/14 02:09:15;;;;;;;53.85;48.72;;;30.80;90.30;;;;;;5063830;28;20659;-55
2020/12/14 02:11:47;;;;;;;48.80;44.17;;;30.90;90.30;;;;;;5070303;28;20228;-56
2020/12/14 02:14:18;;;;;;;48.08;43.42;;;30.90;90.10;;;;;;5066051;28;20244;-55
2020/12/14 02:16:48;;;;;;;51.00;46.15;;;31.00;90.20;;;;;;5070919;28;20239;-56
2020/12/14 02:19:20;;;;;;;51.17;46.25;;;31.00;90.20;;;;;;5066211;28;20762;-56
2020/12/14 02:21:51;;;;;;;49.35;44.70;;;31.10;90.10;;;;;;5069300;28;20244;-56
2020/12/14 02:24:23;;;;;;;45.90;41.67;;;31.20;90.20;;;;;;5052480;28;20610;-56
2020/12/14 02:26:54;;;;;;;39.42;35.78;;;31.30;90.10;;;;;;5070068;28;20248;-57
2020/12/14 02:29:24;;;;;;;44.28;40.42;;;31.30;90.20;;;;;;5027820;28;20234;-55
2020/12/14 02:31:55;;;;;;;42.20;38.30;;;31.40;89.10;;;;;;5026720;28;20666;-57
2020/12/14 02:34:26;;;;;;;40.67;37.15;;;31.50;89.10;;;;;;5024868;28;20584;-58
2020/12/14 02:36:56;;;;;;;41.72;38.05;;;31.60;88.90;;;;;;5026839;28;20733;-57
2020/12/14 02:39:28;;;;;;;40.88;37.33;;;31.60;88.40;;;;;;5027140;28;20235;-57
2020/12/14 02:41:59;;;;;;;41.88;38.03;;;31.70;88.00;;;;;;5024699;28;20286;-56
2020/12/14 02:44:30;;;;;;;42.38;38.55;;;31.80;87.80;;;;;;5026164;28;20242;-55
2020/12/14 02:47:00;;;;;;;40.72;37.13;;;31.90;87.20;;;;;;5026968;28;20230;-57
2020/12/14 02:49:31;;;;;;;36.15;32.97;;;32.00;86.70;;;;;;5023036;28;20257;-57
2020/12/14 02:52:02;;;;;;;32.92;30.17;;;32.00;86.60;;;;;;5022865;28;20239;-54
2020/12/14 02:54:34;;;;;;;34.38;31.20;;;32.10;85.50;;;;;;5023919;28;20237;-54
2020/12/14 02:57:04;;;;;;;34.47;31.38;;;32.20;85.10;;;;;;5024358;28;20230;-53
2020/12/14 02:59:35;;;;;;;35.85;32.67;;;32.30;85.00;;;;;;5028250;28;20245;-55
2020/12/14 03:02:06;;;;;;;35.30;32.13;;;32.30;84.70;;;;;;5065167;28;20245;-56
2020/12/14 03:04:36;;;;;;;35.80;32.70;;;32.40;83.90;;;;;;5065010;28;20237;-57
2020/12/14 03:07:07;;;;;;;40.10;36.65;;;32.50;83.40;;;;;;5064652;28;20236;-53
2020/12/14 03:09:40;;;;;;;37.30;34.00;;;32.60;82.40;;;;;;5064332;28;20225;-57
2020/12/14 03:12:11;;;;;;;30.67;28.05;;;32.60;80.60;;;;;;5065598;28;20241;-56
2020/12/14 03:14:42;;;;;;;28.85;26.38;;;32.70;80.80;;;;;;5066853;28;20225;-56
2020/12/14 03:17:12;;;;;;;31.45;28.45;;;32.70;80.20;;;;;;5063021;28;20233;-55
2020/12/14 03:19:43;;;;;;;32.40;29.42;;;32.80;79.00;;;;;;5066808;28;20286;-51
2020/12/14 03:22:13;;;;;;;30.85;28.15;;;32.80;78.60;;;;;;5063784;28;20250;-55
2020/12/14 03:24:45;;;;;;;31.38;28.63;;;32.80;78.50;;;;;;5046372;28;20333;-52
2020/12/14 03:27:16;;;;;;;37.53;34.00;;;32.80;78.50;;;;;;5050653;28;20241;-55
2020/12/14 03:29:47;;;;;;;32.97;30.00;;;32.80;77.90;;;;;;5060417;28;20316;-54
2020/12/14 03:32:18;;;;;;;32.05;29.25;;;32.90;78.20;;;;;;5065163;28;20256;-53
2020/12/14 03:34:48;;;;;;;32.70;29.90;;;32.90;78.80;;;;;;5062371;28;20226;-51
2020/12/14 03:37:19;;;;;;;32.47;29.65;;;33.00;79.10;;;;;;5064307;28;20751;-51
2020/12/14 03:39:50;;;;;;;31.48;28.77;;;33.00;77.50;;;;;;5060835;28;20237;-53
2020/12/14 03:42:21;;;;;;;30.77;28.13;;;33.10;77.40;;;;;;5068067;28;20240;-53
2020/12/14 03:44:52;;;;;;;33.13;30.33;;;33.20;77.70;;;;;;5070530;28;20316;-52
2020/12/14 03:47:22;;;;;;;32.75;29.98;;;33.20;76.80;;;;;;5052673;28;20287;-53
2020/12/14 03:49:53;;;;;;;33.95;31.08;;;33.30;76.70;;;;;;5069290;28;20229;-56
2020/12/14 03:52:24;;;;;;;31.48;28.83;;;33.40;75.90;;;;;;5069986;28;20218;-56
2020/12/14 03:54:56;;;;;;;29.17;26.77;;;33.40;75.40;;;;;;5068222;28;20239;-54
2020/12/14 03:57:26;;;;;;;31.83;29.25;;;33.40;75.30;;;;;;5067199;28;20225;-53
2020/12/14 03:59:57;;;;;;;35.15;32.15;;;33.50;75.30;;;;;;5066939;28;20643;-54
2020/12/14 04:02:29;;;;;;;32.90;30.00;;;33.50;74.70;;;;;;5065257;28;20232;-51
2020/12/14 04:04:59;;;;;;;38.00;34.70;;;33.50;74.80;;;;;;5064636;28;20241;-50
2020/12/14 04:07:30;;;;;;;33.35;30.45;;;33.60;74.10;;;;;;5070435;28;20233;-52
2020/12/14 04:10:03;;;;;;;35.08;31.85;;;33.60;74.20;;;;;;5072120;28;20237;-51
2020/12/14 04:12:33;;;;;;;34.33;31.42;;;33.60;73.80;;;;;;5066904;28;20276;-55
2020/12/14 04:15:03;;;;;;;34.15;31.13;;;33.70;73.50;;;;;;5067727;28;20229;-56
2020/12/14 04:17:35;;;;;;;35.25;32.10;;;33.70;73.20;;;;;;5067454;28;20312;-54
2020/12/14 04:20:06;;;;;;;34.15;31.15;;;33.80;72.90;;;;;;5064329;28;20240;-53
2020/12/14 04:22:36;;;;;;;38.10;34.58;;;33.80;73.00;;;;;;5065709;28;20282;-57
2020/12/14 04:25:08;;;;;;;31.67;29.13;;;33.70;72.40;;;;;;5069086;28;20263;-55
2020/12/14 04:27:38;;;;;;;36.03;32.80;;;33.80;72.10;;;;;;5064405;28;20225;-55
2020/12/14 04:30:09;;;;;;;29.15;26.77;;;33.80;72.10;;;;;;5069422;28;20258;-57
2020/12/14 04:32:39;;;;;;;33.85;30.92;;;33.80;72.60;;;;;;5070747;28;20245;-57
2020/12/14 04:35:11;;;;;;;30.67;28.05;;;33.90;72.50;;;;;;5067894;28;20777;-56
2020/12/14 04:37:41;;;;;;;30.10;27.55;;;34.00;72.70;;;;;;5067108;28;20238;-56
2020/12/14 04:40:13;;;;;;;32.53;29.70;;;34.00;72.50;;;;;;5068153;28;20240;-58
2020/12/14 04:42:44;;;;;;;32.38;29.63;;;34.10;71.40;;;;;;5065266;28;20234;-56
2020/12/14 04:45:15;;;;;;;28.63;26.23;;;34.10;71.10;;;;;;5069999;28;20241;-56
2020/12/14 04:47:50;;;;;;;28.02;25.55;;;34.20;71.50;;;;;;5067282;28;20244;-58
2020/12/14 04:50:20;;;;;;;25.17;23.08;;;34.30;70.80;;;;;;5067162;28;20921;-55
2020/12/14 04:52:51;;;;;;;24.50;22.60;;;34.40;69.80;;;;;;5068666;28;20235;-55
2020/12/14 04:55:23;;;;;;;23.42;21.55;;;34.50;69.50;;;;;;5069800;28;20235;-57
2020/12/14 04:57:54;;;;;;;36.72;33.47;;;34.50;69.70;;;;;;5064056;28;20248;-57
2020/12/14 05:00:24;;;;;;;41.53;38.15;;;34.50;70.60;;;;;;5068740;28;20241;-55
2020/12/14 05:02:56;;;;;;;35.53;32.50;;;34.60;70.70;;;;;;5067257;28;20243;-57
2020/12/14 05:05:27;;;;;;;37.08;33.75;;;34.60;70.80;;;;;;5063040;28;25545;-57
2020/12/14 05:07:57;;;;;;;34.30;31.42;;;34.60;71.00;;;;;;5064401;28;20248;-62
2020/12/14 05:10:30;;;;;;;30.75;28.20;;;34.60;70.80;;;;;;5065504;28;20268;-59
2020/12/14 05:13:01;;;;;;;29.65;27.23;;;34.70;70.50;;;;;;5066938;28;20240;-59
2020/12/14 05:15:31;;;;;;;33.38;30.48;;;34.70;70.50;;;;;;5042249;28;20226;-58
2020/12/14 05:18:10;;;;;;;34.78;31.92;;;34.80;70.30;;;;;;5024782;28;20662;-57
2020/12/14 05:20:41;;;;;;;39.20;35.67;;;34.80;69.30;;;;;;5043169;28;20233;-63
2020/12/14 05:23:13;;;;;;;34.50;31.65;;;34.80;70.10;;;;;;5045436;28;20236;-57
2020/12/14 05:25:44;;;;;;;33.35;30.55;;;34.80;70.10;;;;;;5040034;28;20777;-59
2020/12/14 05:28:16;;;;;;;34.03;31.13;;;34.80;69.90;;;;;;5040702;28;20641;-50
2020/12/14 05:30:47;;;;;;;29.25;26.98;;;34.80;69.30;;;;;;5039487;28;20238;-59
2020/12/14 05:33:19;;;;;;;28.75;26.17;;;34.90;69.30;;;;;;5037998;28;20237;-55
2020/12/14 05:35:50;;;;;;;32.13;29.42;;;34.90;69.20;;;;;;5038351;28;20242;-67
2020/12/14 05:38:21;;;;;;;31.58;28.83;;;34.90;68.60;;;;;;5039526;28;20615;-64
2020/12/14 05:40:53;;;;;;;31.90;29.15;;;34.90;68.80;;;;;;5038589;28;20293;-60
2020/12/14 05:43:25;;;;;;;29.13;26.73;;;34.90;68.20;;;;;;5041687;28;20335;-62
2020/12/14 05:45:56;;;;;;;28.75;26.35;;;34.90;68.50;;;;;;5046750;28;20245;-63
2020/12/14 05:48:28;;;;;;;26.65;24.42;;;34.90;68.50;;;;;;5046491;28;20249;-63
2020/12/14 05:51:00;;;;;;;34.33;31.42;;;35.00;68.00;;;;;;5035372;28;20307;-51
2020/12/14 05:53:37;;;;;;;41.20;37.80;;;35.00;68.90;;;;;;5045679;28;20237;-51
2020/12/14 05:56:09;;;;;;;38.92;35.53;;;35.00;68.20;;;;;;5044593;28;20741;-53
2020/12/14 05:58:40;;;;;;;43.42;39.88;;;35.00;68.70;;;;;;5042013;28;20317;-56
2020/12/14 06:01:11;;;;;;;36.25;33.15;;;35.00;68.10;;;;;;5044519;28;20799;-61
2020/12/14 06:03:42;;;;;;;39.38;36.05;;;35.00;68.30;;;;;;5043220;28;20344;-57
2020/12/14 06:06:13;;;;;;;35.03;32.17;;;35.00;68.80;;;;;;5040830;28;20230;-56
2020/12/14 06:09:00;;;;;;;34.47;31.67;;;35.00;68.10;;;;;;5042267;28;20237;-56
2020/12/14 06:11:35;;;;;;;30.90;28.25;;;34.90;67.80;;;;;;4997328;28;20933;-57
2020/12/14 06:14:06;;;;;;;32.38;29.77;;;34.90;68.20;;;;;;4995933;28;20600;-56
2020/12/14 06:16:39;;;;;;;30.95;28.40;;;34.90;68.20;;;;;;4999714;28;20275;-57
2020/12/14 06:19:10;;;;;;;32.33;29.73;;;34.80;68.20;;;;;;5010785;28;20332;-54
2020/12/14 06:21:44;;;;;;;36.80;33.60;;;34.70;68.30;;;;;;5018457;28;20230;-56
2020/12/14 06:24:20;;;;;;;43.67;39.85;;;34.60;68.20;;;;;;5028064;28;20276;-57
2020/12/14 06:26:51;;;;;;;36.80;33.70;;;34.60;68.10;;;;;;5027001;28;20236;-56
2020/12/14 06:29:32;;;;;;;41.10;37.60;;;34.50;68.70;;;;;;4966880;28;20248;-54
2020/12/14 06:32:02;;;;;;;44.30;40.53;;;34.40;69.20;;;;;;4969573;28;20232;-53
2020/12/14 06:34:43;;;;;;;36.67;33.60;;;34.30;69.20;;;;;;4971764;28;20791;-55
2020/12/14 06:37:13;;;;;;;42.05;38.63;;;34.20;69.80;;;;;;4967862;28;20240;-56
2020/12/14 06:39:45;;;;;;;41.25;37.72;;;34.10;69.60;;;;;;4920489;29;20925;-54
2020/12/14 06:42:26;;;;;;;42.05;38.55;;;34.00;69.60;;;;;;4938100;28;20229;-55
2020/12/14 06:45:21;;;;;;;41.17;37.88;;;33.90;70.50;;;;;;4962207;28;20243;-57
2020/12/14 06:47:53;;;;;;;43.38;39.83;;;33.80;71.20;;;;;;4917953;29;20634;-55
2020/12/14 06:50:28;;;;;;;43.70;40.20;;;33.80;71.30;;;;;;4934368;29;20230;-57
2020/12/14 06:52:58;;;;;;;41.17;37.78;;;33.70;71.50;;;;;;4926252;29;20758;-57
2020/12/14 06:55:43;;;;;;;40.47;37.13;;;33.60;71.70;;;;;;4938443;29;20906;-57
2020/12/14 06:58:32;;;;;;;41.15;37.65;;;33.50;72.50;;;;;;4936644;29;20244;-57
2020/12/14 07:01:03;;;;;;;35.58;32.65;;;33.50;72.60;;;;;;4972088;28;20263;-57
2020/12/14 07:03:40;;;;;;;38.83;35.50;;;33.40;72.90;;;;;;4981405;28;20236;-56
2020/12/14 07:06:10;;;;;;;36.05;33.05;;;33.40;73.00;;;;;;4984641;28;20235;-56
2020/12/14 07:08:41;;;;;;;41.08;37.45;;;33.40;73.50;;;;;;4985034;28;20236;-56
2020/12/14 07:11:16;;;;;;;30.15;27.42;;;33.40;74.40;;;;;;4998465;28;20231;-56
2020/12/14 07:13:48;;;;;;;18.35;16.80;;;33.30;74.90;;;;;;5005384;28;20230;-54
2020/12/14 07:16:20;;;;;;;4.28;3.97;;;33.20;72.80;;;;;;5007873;28;20235;-56
2020/12/14 07:18:51;;;;;;;4.10;3.80;;;33.10;68.30;;;;;;5029976;28;20230;-52
2020/12/14 07:21:22;;;;;;;4.65;4.25;;;32.80;67.50;;;;;;5008209;28;20227;-54
2020/12/14 07:23:52;;;;;;;4.35;3.95;;;32.50;68.90;;;;;;4953262;28;20237;-55
2020/12/14 07:26:23;;;;;;;3.78;3.47;;;32.20;69.70;;;;;;4914158;29;20330;-53
2020/12/14 07:28:55;;;;;;;4.63;4.22;;;31.90;70.30;;;;;;4913318;29;20234;-53
2020/12/14 07:31:26;;;;;;;4.20;3.75;;;31.70;70.70;;;;;;4914863;29;20359;-54
2020/12/14 07:33:57;;;;;;;3.67;2.92;;;31.50;72.10;;;;;;4913483;29;20910;-52
2020/12/14 07:36:28;;;;;;;3.97;3.67;;;31.40;73.50;;;;;;4912843;29;20259;-54
2020/12/14 07:38:59;;;;;;;4.72;4.32;;;31.30;73.90;;;;;;4914241;29;20278;-53
2020/12/14 07:41:30;;;;;;;5.25;4.75;;;31.20;74.50;;;;;;4912543;29;20234;-56
2020/12/14 07:44:02;;;;;;;6.20;5.60;;;31.20;75.30;;;;;;4914679;29;20266;-55
2020/12/14 07:46:33;;;;;;;5.70;5.20;;;31.10;76.00;;;;;;4955234;28;20763;-52
2020/12/14 07:49:05;;;;;;;7.07;6.43;;;31.10;75.80;;;;;;4996653;28;20302;-55
2020/12/14 07:51:37;;;;;;;6.93;6.22;;;31.10;76.20;;;;;;5041698;28;20234;-52
2020/12/14 07:54:11;;;;;;;7.68;5.60;;;31.00;76.30;;;;;;5046237;28;20261;-50
2020/12/14 07:56:46;;;;;;;7.47;6.50;;;31.00;76.90;;;;;;5052661;28;20233;-52
2020/12/14 07:59:20;;;;;;;7.45;6.65;;;31.10;76.70;;;;;;5052740;28;20360;-54
2020/12/14 08:01:51;;;;;;;8.20;7.43;;;31.10;77.60;;;;;;5052875;28;20232;-52
2020/12/14 08:04:29;;;;;;;8.93;8.13;;;31.10;77.70;;;;;;5052068;28;20238;-53
2020/12/14 08:07:00;;;;;;;10.52;9.50;;;31.10;78.20;;;;;;5051838;28;20253;-53
2020/12/14 08:09:31;;;;;;;11.70;10.50;;;31.10;78.20;;;;;;5050764;28;20233;-53
2020/12/14 08:12:02;;;;;;;21.75;19.55;;;31.20;78.80;;;;;;5069276;28;20249;-51
2020/12/14 08:14:35;;;;;;;22.38;20.08;;;31.20;79.00;;;;;;5055134;28;21143;-54
2020/12/14 08:17:06;;;;;;;24.48;22.38;;;31.30;79.20;;;;;;5053184;28;20348;-51
2020/12/14 08:19:37;;;;;;;23.95;21.73;;;31.30;79.20;;;;;;5010551;28;20609;-51
2020/12/14 08:22:08;;;;;;;25.90;23.58;;;31.30;79.20;;;;;;5010253;28;20277;-55
2020/12/14 08:24:40;;;;;;;26.27;23.95;;;31.30;79.50;;;;;;5032173;28;20266;-52
2020/12/14 08:27:11;;;;;;;25.52;23.30;;;31.40;80.10;;;;;;5023817;28;20760;-52
2020/12/14 08:29:51;;;;;;;28.48;26.00;;;31.30;80.10;;;;;;5018118;28;20234;-53
2020/12/14 08:32:25;;;;;;;32.20;29.50;;;31.40;81.00;;;;;;5023401;28;20235;-51
2020/12/14 08:34:56;;;;;;;32.85;30.05;;;31.40;80.30;;;;;;5022709;28;20273;-52
2020/12/14 08:37:27;;;;;;;33.08;30.35;;;31.50;80.50;;;;;;5017619;28;20302;-51
2020/12/14 08:40:00;;;;;;;32.45;29.70;;;31.50;80.80;;;;;;5019232;28;20258;-55
2020/12/14 08:42:30;;;;;;;42.35;38.55;;;31.60;81.40;;;;;;5009713;28;20286;-51
2020/12/14 08:45:11;;;;;;;42.22;38.58;;;31.60;81.90;;;;;;5024615;28;20310;-51
2020/12/14 08:47:43;;;;;;;36.95;33.90;;;31.60;82.70;;;;;;5022261;28;20257;-54
2020/12/14 08:50:16;;;;;;;38.05;34.92;;;31.70;82.20;;;;;;5037502;28;20255;-53
2020/12/14 08:52:59;;;;;;;41.22;37.75;;;31.70;82.40;;;;;;5065544;28;20229;-53
2020/12/14 08:55:39;;;;;;;41.05;37.58;;;31.70;82.00;;;;;;5062214;28;20237;-51
2020/12/14 08:58:10;;;;;;;39.45;36.17;;;31.80;82.50;;;;;;5062759;28;20602;-54
2020/12/14 09:00:41;;;;;;;41.83;38.58;;;31.80;82.20;;;;;;5063113;28;20701;-54
2020/12/14 09:03:12;;;;;;;38.30;35.22;;;31.80;82.10;;;;;;5060927;28;20240;-53
2020/12/14 09:05:43;;;;;;;35.55;32.72;;;31.90;81.70;;;;;;5058840;28;20260;-53
2020/12/14 09:08:15;;;;;;;36.70;33.70;;;31.90;81.70;;;;;;5062254;28;20244;-55
2020/12/14 09:10:57;;;;;;;35.50;32.63;;;31.90;81.60;;;;;;5059908;28;20236;-53
2020/12/14 09:13:28;;;;;;;35.03;32.20;;;32.00;81.60;;;;;;5058834;28;20322;-54
2020/12/14 09:16:01;;;;;;;39.40;36.13;;;32.00;81.20;;;;;;5058559;28;20230;-53
2020/12/14 09:18:33;;;;;;;39.70;36.45;;;32.10;81.50;;;;;;5060971;28;20252;-49
2020/12/14 09:21:06;;;;;;;36.13;33.13;;;32.10;81.40;;;;;;5057432;28;20245;-54
2020/12/14 09:23:37;;;;;;;39.17;35.83;;;32.10;81.30;;;;;;5058568;28;20229;-53
2020/12/14 09:26:07;;;;;;;40.10;36.85;;;32.10;81.40;;;;;;5058948;28;20240;-49
2020/12/14 09:28:38;;;;;;;38.33;35.00;;;32.10;81.60;;;;;;5058938;28;20318;-54
2020/12/14 09:31:12;;;;;;;44.80;41.17;;;32.20;81.70;;;;;;5049992;28;20241;-52
2020/12/14 09:33:42;;;;;;;42.10;38.60;;;32.10;81.90;;;;;;5042697;28;20257;-55
2020/12/14 09:36:16;;;;;;;37.03;33.88;;;32.20;81.30;;;;;;5045779;28;20233;-52
2020/12/14 09:38:47;;;;;;;39.20;35.90;;;32.20;81.30;;;;;;5046686;28;20226;-53
2020/12/14 09:41:17;;;;;;;33.70;31.00;;;32.20;81.40;;;;;;5048046;28;20262;-50
2020/12/14 09:43:48;;;;;;;41.58;38.10;;;32.20;81.50;;;;;;5050559;28;20226;-53
2020/12/14 09:46:20;;;;;;;42.40;38.67;;;32.20;81.60;;;;;;5047006;28;20962;-53
2020/12/14 09:48:51;;;;;;;44.95;41.25;;;32.20;81.30;;;;;;5045482;28;20222;-53
2020/12/14 09:51:22;;;;;;;36.95;33.85;;;32.20;81.10;;;;;;5049051;28;20733;-55
2020/12/14 09:53:52;;;;;;;39.55;36.33;;;32.20;80.90;;;;;;5044537;28;20237;-52
2020/12/14 09:56:23;;;;;;;43.92;40.15;;;32.20;81.10;;;;;;5046355;28;20226;-49
2020/12/14 09:58:53;;;;;;;34.70;31.77;;;32.20;81.10;;;;;;5054281;28;20225;-55
2020/12/14 10:01:27;;;;;;;37.55;34.40;;;32.10;81.20;;;;;;5046065;28;20234;-54
2020/12/14 10:03:58;;;;;;;36.72;33.63;;;32.20;81.00;;;;;;5042363;28;20235;-54
2020/12/14 10:06:30;;;;;;;38.50;35.20;;;32.20;81.10;;;;;;5038913;28;20287;-53
2020/12/14 10:09:01;;;;;;;37.80;34.67;;;32.20;80.80;;;;;;5045561;28;20240;-54
2020/12/14 10:11:33;;;;;;;37.60;34.42;;;32.20;80.70;;;;;;5046811;28;20233;-56
2020/12/14 10:14:04;;;;;;;33.03;30.35;;;32.30;80.70;;;;;;5046581;28;20225;-55
2020/12/14 10:16:37;;;;;;;37.35;34.28;;;32.30;80.70;;;;;;5047982;28;20324;-53
2020/12/14 10:19:16;;;;;;;39.38;36.17;;;32.40;80.70;;;;;;5049706;28;20651;-56
2020/12/14 10:21:47;;;;;;;41.67;38.25;;;32.40;80.40;;;;;;5049454;28;20835;-55
2020/12/14 10:24:18;;;;;;;44.25;40.63;;;32.50;80.30;;;;;;5046779;28;20229;-54
2020/12/14 10:26:51;;;;;;;42.42;39.05;;;32.50;79.90;;;;;;5050456;28;20308;-54
2020/12/14 10:29:22;;;;;;;42.10;38.60;;;32.50;79.40;;;;;;5065175;28;20235;-56
2020/12/14 10:31:53;;;;;;;42.05;38.60;;;32.50;79.20;;;;;;5066469;28;20240;-54
2020/12/14 10:34:24;;;;;;;42.05;38.70;;;32.50;79.10;;;;;;5067791;28;20229;-57
2020/12/14 10:36:56;;;;;;;36.45;33.30;;;32.40;79.10;;;;;;5061242;28;20225;-57
2020/12/14 10:39:26;;;;;;;35.10;32.17;;;32.30;79.00;;;;;;5051091;28;20233;-57
2020/12/14 10:41:57;;;;;;;26.08;23.88;;;32.30;79.20;;;;;;5066220;28;20294;-54
2020/12/14 10:44:29;;;;;;;19.73;17.98;;;32.20;78.50;;;;;;5066017;28;20237;-57
2020/12/14 10:47:06;;;;;;;17.38;15.98;;;32.10;78.30;;;;;;5065911;28;20340;-55
2020/12/14 10:49:37;;;;;;;15.35;14.05;;;32.00;78.00;;;;;;5067865;28;20236;-56
2020/12/14 10:52:08;;;;;;;12.60;11.65;;;31.90;77.90;;;;;;5070650;28;20229;-57
2020/12/14 10:54:38;;;;;;;13.70;12.60;;;31.70;77.90;;;;;;5070297;28;20243;-54
2020/12/14 10:57:09;;;;;;;12.95;11.85;;;31.70;78.20;;;;;;5069979;28;20916;-53
2020/12/14 10:59:40;;;;;;;12.32;11.32;;;31.60;78.40;;;;;;5075084;28;20236;-57
2020/12/14 11:02:12;;;;;;;12.85;10.93;;;31.50;78.60;;;;;;5071126;28;20239;-56
2020/12/14 11:04:43;;;;;;;10.23;9.43;;;31.40;79.00;;;;;;5069284;28;20585;-55
2020/12/14 11:07:14;;;;;;;10.90;10.00;;;31.40;79.10;;;;;;5069785;28;20244;-56
2020/12/14 11:09:45;;;;;;;9.55;8.80;;;31.30;79.20;;;;;;5073006;28;20267;-57
2020/12/14 11:12:16;;;;;;;10.57;9.68;;;31.30;79.40;;;;;;5072418;28;20229;-55
2020/12/14 11:14:46;;;;;;;14.80;13.40;;;31.20;79.50;;;;;;5070722;28;20225;-55
2020/12/14 11:17:18;;;;;;;10.80;9.93;;;31.10;79.70;;;;;;5070007;28;20292;-55
2020/12/14 11:19:50;;;;;;;10.18;9.38;;;31.10;79.80;;;;;;5070835;28;20229;-52
2020/12/14 11:22:20;;;;;;;10.18;9.32;;;31.10;79.80;;;;;;5069381;28;20231;-54
2020/12/14 11:24:51;;;;;;;9.23;8.52;;;31.00;80.10;;;;;;5068464;28;20230;-53
2020/12/14 11:27:22;;;;;;;9.82;8.88;;;31.00;80.60;;;;;;5070140;28;20834;-57
2020/12/14 11:29:52;;;;;;;10.63;9.73;;;31.00;80.90;;;;;;5051779;28;20248;-56
2020/12/14 11:32:24;;;;;;;10.40;9.50;;;31.00;80.90;;;;;;5071131;28;20221;-55
2020/12/14 11:34:55;;;;;;;10.48;9.40;;;31.00;81.00;;;;;;5069186;28;20244;-53
2020/12/14 11:37:25;;;;;;;9.63;8.82;;;30.90;81.00;;;;;;5068381;28;20225;-56
2020/12/14 11:39:56;;;;;;;8.38;7.70;;;31.00;80.90;;;;;;5050119;28;20233;-52
2020/12/14 11:42:27;;;;;;;8.63;7.93;;;30.90;80.60;;;;;;5048281;28;20228;-56
2020/12/14 11:44:57;;;;;;;9.40;8.50;;;30.90;81.60;;;;;;5049358;28;20278;-59
2020/12/14 11:47:29;;;;;;;9.07;8.18;;;30.90;81.80;;;;;;5048500;28;20244;-57
2020/12/14 11:50:00;;;;;;;8.13;7.50;;;30.80;81.20;;;;;;5048825;28;20242;-55
2020/12/14 11:52:31;;;;;;;8.45;7.80;;;30.80;81.30;;;;;;5046450;28;20221;-57
2020/12/14 11:55:03;;;;;;;8.05;7.35;;;30.80;82.40;;;;;;5049659;28;20368;-54
2020/12/14 11:57:34;;;;;;;8.27;7.68;;;30.70;81.70;;;;;;5036806;28;20277;-55
2020/12/14 12:00:06;;;;;;;8.75;7.95;;;30.70;81.90;;;;;;5049978;28;20242;-56
2020/12/14 12:02:37;;;;;;;9.27;8.38;;;30.70;82.00;;;;;;5051662;28;20325;-56
2020/12/14 12:05:09;;;;;;;8.00;7.30;;;30.70;82.20;;;;;;5052940;28;20336;-54
2020/12/14 12:07:39;;;;;;;7.97;7.40;;;30.70;82.20;;;;;;5050291;28;20241;-57
2020/12/14 12:10:10;;;;;;;9.60;8.77;;;30.70;82.20;;;;;;5048809;28;20237;-56
2020/12/14 12:12:41;;;;;;;10.25;9.32;;;30.70;82.30;;;;;;5046197;28;20321;-56
2020/12/14 12:15:15;;;;;;;7.88;7.20;;;30.70;82.40;;;;;;5049718;28;20234;-54
2020/12/14 12:17:47;;;;;;;9.20;8.40;;;30.70;82.60;;;;;;5048656;28;20271;-53
2020/12/14 12:20:18;;;;;;;9.75;8.95;;;30.60;82.70;;;;;;5049718;28;20242;-54
2020/12/14 12:22:49;;;;;;;8.07;7.43;;;30.70;82.90;;;;;;5051891;28;20241;-55
2020/12/14 12:25:19;;;;;;;8.75;8.05;;;30.70;83.00;;;;;;5050994;28;20234;-54
2020/12/14 12:27:49;;;;;;;10.48;9.32;;;30.60;83.10;;;;;;5051482;28;20230;-52
2020/12/14 12:30:20;;;;;;;9.10;8.32;;;30.60;83.30;;;;;;5053276;28;20240;-53
2020/12/14 12:32:52;;;;;;;9.93;9.05;;;30.60;83.40;;;;;;5048184;28;20630;-56
2020/12/14 12:35:23;;;;;;;10.52;9.43;;;30.60;83.60;;;;;;5046966;28;20229;-54
2020/12/14 12:37:53;;;;;;;8.90;8.20;;;30.60;83.50;;;;;;5047652;28;20282;-51
2020/12/14 12:40:24;;;;;;;8.27;7.53;;;30.60;83.50;;;;;;5044428;28;20236;-57
2020/12/14 12:42:56;;;;;;;9.43;8.73;;;30.60;83.50;;;;;;5038298;28;20273;-56
2020/12/14 12:45:27;;;;;;;10.00;9.20;;;30.50;83.30;;;;;;5038440;28;20236;-55
2020/12/14 12:47:59;;;;;;;9.63;8.77;;;30.60;83.30;;;;;;5042139;28;20234;-52
2020/12/14 12:50:30;;;;;;;8.90;8.10;;;30.60;83.50;;;;;;5036247;28;20272;-55
2020/12/14 12:53:01;;;;;;;9.20;8.45;;;30.60;83.50;;;;;;5034849;28;20240;-55